createdAt,value
2018-12-05T00:01:31.618Z,9.27
2018-12-05T00:04:00.486Z,9.27
2018-12-05T00:06:28.469Z,6.57
2018-12-05T00:08:56.020Z,11.90
2018-12-05T00:11:23.648Z,15.83
2018-12-05T00:13:52.021Z,9.37
2018-12-05T00:16:20.124Z,11.23
2018-12-05T00:18:47.684Z,13.40
2018-12-05T00:21:18.728Z,10.37
2018-12-05T00:23:47.995Z,5.73
2018-12-05T00:26:15.553Z,8.70
2018-12-05T00:28:43.105Z,8.60
2018-12-05T00:31:10.662Z,10.07
2018-12-05T00:33:38.224Z,11.20
2018-12-05T00:36:05.772Z,10.97
2018-12-05T00:38:33.313Z,8.93
2018-12-05T00:41:01.314Z,12.83
2018-12-05T00:43:28.884Z,5.17
2018-12-05T00:45:56.443Z,7.87
2018-12-05T00:48:23.988Z,10.53
2018-12-05T00:50:51.540Z,9.67
2018-12-05T00:53:19.100Z,9.20
2018-12-05T00:55:46.652Z,8.93
2018-12-05T00:58:14.224Z,7.77
2018-12-05T01:00:45.077Z,11.87
2018-12-05T01:03:12.639Z,13.70
2018-12-05T01:05:40.914Z,14.00
2018-12-05T01:08:09.820Z,14.80
2018-12-05T01:10:38.284Z,7.77
2018-12-05T01:13:06.855Z,11.67
2018-12-05T01:15:35.348Z,16.03
2018-12-05T01:18:02.949Z,9.70
2018-12-05T01:20:31.019Z,16.33
2018-12-05T01:22:58.575Z,9.90
2018-12-05T01:25:26.119Z,9.57
2018-12-05T01:27:53.869Z,10.10
2018-12-05T01:30:22.436Z,9.37
2018-12-05T01:32:55.222Z,11.20
2018-12-05T01:35:22.797Z,13.07
2018-12-05T01:37:50.428Z,10.53
2018-12-05T01:40:18.589Z,9.00
2018-12-05T01:42:50.539Z,9.57
2018-12-05T01:45:20.965Z,12.97
2018-12-05T01:47:49.181Z,10.13
2018-12-05T01:50:17.124Z,13.23
2018-12-05T01:52:44.708Z,19.43
2018-12-05T01:55:12.263Z,17.07
2018-12-05T01:57:39.855Z,14.57
2018-12-05T02:00:07.440Z,11.93
2018-12-05T02:02:35.003Z,10.73
2018-12-05T02:05:02.561Z,10.93
2018-12-05T02:07:30.123Z,15.40
2018-12-05T02:09:57.699Z,11.70
2018-12-05T02:12:25.257Z,9.00
2018-12-05T02:14:52.828Z,11.30
2018-12-05T02:17:20.388Z,11.43
2018-12-05T02:19:47.963Z,12.50
2018-12-05T02:22:15.528Z,13.00
2018-12-05T02:24:43.161Z,13.60
2018-12-05T02:27:10.720Z,16.33
2018-12-05T02:29:44.129Z,11.03
2018-12-05T02:32:11.689Z,13.03
2018-12-05T02:34:39.253Z,13.07
2018-12-05T02:37:06.818Z,15.27
2018-12-05T02:39:34.407Z,15.30
2018-12-05T02:42:01.989Z,10.73
2018-12-05T02:44:29.636Z,15.13
2018-12-05T02:46:57.557Z,14.17
2018-12-05T02:49:25.305Z,17.37
2018-12-05T02:51:52.894Z,15.60
2018-12-05T02:54:20.521Z,14.20
2018-12-05T02:56:48.072Z,13.90
2018-12-05T02:59:15.624Z,14.17
2018-12-05T03:01:43.186Z,10.13
2018-12-05T03:04:10.766Z,15.40
2018-12-05T03:06:38.334Z,15.47
2018-12-05T03:09:07.465Z,19.60
2018-12-05T03:11:35.028Z,18.80
2018-12-05T03:14:02.580Z,18.70
2018-12-05T03:16:30.149Z,20.67
2018-12-05T03:18:57.726Z,19.87
2018-12-05T03:21:25.289Z,17.57
2018-12-05T03:23:52.964Z,16.00
2018-12-05T03:26:20.545Z,15.53
2018-12-05T03:28:48.120Z,18.13
2018-12-05T03:31:15.691Z,17.13
2018-12-05T03:33:43.284Z,16.97
2018-12-05T03:36:10.968Z,18.53
2018-12-05T03:38:38.533Z,23.53
2018-12-05T03:41:06.105Z,16.23
2018-12-05T03:43:33.696Z,22.03
2018-12-05T03:46:01.264Z,22.00
2018-12-05T03:48:28.841Z,20.63
2018-12-05T03:50:56.438Z,22.40
2018-12-05T03:53:24.012Z,15.73
2018-12-05T03:55:51.570Z,19.63
2018-12-05T03:58:19.132Z,24.33
2018-12-05T04:00:46.786Z,14.37
2018-12-05T04:03:14.445Z,21.90
2018-12-05T04:05:42.005Z,15.20
2018-12-05T04:08:09.560Z,17.60
2018-12-05T04:10:37.320Z,16.67
2018-12-05T04:13:04.908Z,22.97
2018-12-05T04:15:32.487Z,17.53
2018-12-05T04:18:00.050Z,16.20
2018-12-05T04:20:27.624Z,16.90
2018-12-05T04:22:55.788Z,22.60
2018-12-05T04:25:23.365Z,17.43
2018-12-05T04:27:50.928Z,20.13
2018-12-05T04:30:18.505Z,14.23
2018-12-05T04:32:46.065Z,16.67
2018-12-05T04:35:13.674Z,18.53
2018-12-05T04:37:41.488Z,21.43
2018-12-05T04:40:09.043Z,19.67
2018-12-05T04:42:36.625Z,22.80
2018-12-05T04:45:04.272Z,16.13
2018-12-05T04:47:31.836Z,20.80
2018-12-05T04:49:59.411Z,18.00
2018-12-05T04:52:26.972Z,19.73
2018-12-05T04:54:54.532Z,16.47
2018-12-05T04:57:22.096Z,17.47
2018-12-05T04:59:49.662Z,17.50
2018-12-05T05:02:17.232Z,19.07
2018-12-05T05:04:44.792Z,18.60
2018-12-05T05:07:12.357Z,16.33
2018-12-05T05:09:39.920Z,21.40
2018-12-05T05:12:07.496Z,18.20
2018-12-05T05:14:35.416Z,16.10
2018-12-05T05:17:02.992Z,22.57
2018-12-05T05:19:30.550Z,22.23
2018-12-05T05:21:58.111Z,15.53
2018-12-05T05:24:25.700Z,16.00
2018-12-05T05:26:53.264Z,14.30
2018-12-05T05:29:20.836Z,19.97
2018-12-05T05:31:48.389Z,16.63
2018-12-05T05:34:15.945Z,12.93
2018-12-05T05:36:43.524Z,15.77
2018-12-05T05:39:11.076Z,14.33
2018-12-05T05:41:38.657Z,17.40
2018-12-05T05:44:06.217Z,18.13
2018-12-05T05:46:33.808Z,19.48
2018-12-05T05:49:01.368Z,18.57
2018-12-05T05:51:29.440Z,15.20
2018-12-05T05:53:57.000Z,17.87
2018-12-05T05:56:24.551Z,14.33
2018-12-05T05:58:52.120Z,14.73
2018-12-05T06:01:19.677Z,15.23
2018-12-05T06:03:47.245Z,16.53
2018-12-05T06:06:14.839Z,16.53
2018-12-05T06:08:42.406Z,16.63
2018-12-05T06:11:09.960Z,16.20
2018-12-05T06:13:37.553Z,13.20
2018-12-05T06:16:05.119Z,16.53
2018-12-05T06:18:32.736Z,13.07
2018-12-05T06:21:00.298Z,14.40
2018-12-05T06:23:27.868Z,18.23
2018-12-05T06:25:55.423Z,14.83
2018-12-05T06:28:22.981Z,19.83
2018-12-05T06:30:50.548Z,16.13
2018-12-05T06:33:18.102Z,15.00
2018-12-05T06:35:45.661Z,14.73
2018-12-05T06:38:13.227Z,14.77
2018-12-05T06:40:40.789Z,19.00
2018-12-05T06:43:08.372Z,11.97
2018-12-05T06:45:35.924Z,17.77
2018-12-05T06:48:03.498Z,18.57
2018-12-05T06:50:31.108Z,17.33
2018-12-05T06:52:58.728Z,12.93
2018-12-05T06:55:26.289Z,16.00
2018-12-05T06:57:53.859Z,15.67
2018-12-05T07:00:21.444Z,14.50
2018-12-05T07:02:49.027Z,14.70
2018-12-05T07:05:16.699Z,19.60
2018-12-05T07:07:44.284Z,16.33
2018-12-05T07:10:11.852Z,20.73
2018-12-05T07:12:39.426Z,17.87
2018-12-05T07:15:06.986Z,17.80
2018-12-05T07:17:34.553Z,17.47
2018-12-05T07:20:02.149Z,19.95
2018-12-05T07:22:29.701Z,19.57
2018-12-05T07:24:57.327Z,16.37
2018-12-05T07:27:24.908Z,17.60
2018-12-05T07:29:52.474Z,14.93
2018-12-05T07:32:20.052Z,23.20
2018-12-05T07:34:47.801Z,22.30
2018-12-05T07:37:15.382Z,15.70
2018-12-05T07:39:42.950Z,16.40
2018-12-05T07:42:10.849Z,18.27
2018-12-05T07:44:38.461Z,19.87
2018-12-05T07:47:06.021Z,20.83
2018-12-05T07:49:33.593Z,15.73
2018-12-05T07:52:01.183Z,15.57
2018-12-05T07:54:28.741Z,21.67
2018-12-05T07:56:56.321Z,21.70
2018-12-05T07:59:23.950Z,20.33
2018-12-05T08:01:51.628Z,22.27
2018-12-05T08:04:19.532Z,27.70
2018-12-05T08:06:47.093Z,21.63
2018-12-05T08:09:14.657Z,15.30
2018-12-05T08:11:42.217Z,14.30
2018-12-05T08:14:09.825Z,21.90
2018-12-05T08:16:37.392Z,21.33
2018-12-05T08:19:05.055Z,22.73
2018-12-05T08:21:32.633Z,19.23
2018-12-05T08:24:00.245Z,31.43
2018-12-05T08:26:27.818Z,20.73
2018-12-05T08:28:55.374Z,27.07
2018-12-05T08:31:22.934Z,18.13
2018-12-05T08:33:50.532Z,28.23
2018-12-05T08:36:18.085Z,16.33
2018-12-05T08:38:45.645Z,17.57
2018-12-05T08:41:13.246Z,22.73
2018-12-05T08:43:40.813Z,21.57
2018-12-05T08:46:08.382Z,18.90
2018-12-05T08:48:35.956Z,23.37
2018-12-05T08:51:03.528Z,21.30
2018-12-05T08:53:31.139Z,18.80
2018-12-05T08:55:58.695Z,24.10
2018-12-05T08:58:26.313Z,18.87
2018-12-05T09:00:53.873Z,17.23
2018-12-05T09:03:21.475Z,17.23
2018-12-05T09:05:49.142Z,18.97
2018-12-05T09:08:17.237Z,21.03
2018-12-05T09:10:44.799Z,23.07
2018-12-05T09:13:12.357Z,21.73
2018-12-05T09:15:39.912Z,17.33
2018-12-05T09:18:07.468Z,19.37
2018-12-05T09:20:35.013Z,18.80
2018-12-05T09:23:02.568Z,19.70
2018-12-05T09:25:30.184Z,17.33
2018-12-05T09:27:57.740Z,17.63
2018-12-05T09:30:25.296Z,19.40
2018-12-05T09:32:52.860Z,21.57
2018-12-05T09:35:20.769Z,19.43
2018-12-05T09:37:49.136Z,20.30
2018-12-05T09:40:16.708Z,26.90
2018-12-05T09:42:44.279Z,19.07
2018-12-05T09:45:12.473Z,21.20
2018-12-05T09:47:40.042Z,21.17
2018-12-05T09:50:07.620Z,15.17
2018-12-05T09:52:35.195Z,16.33
2018-12-05T09:55:03.065Z,19.30
2018-12-05T09:57:30.620Z,18.53
2018-12-05T09:59:58.901Z,18.03
2018-12-05T10:02:26.526Z,15.40
2018-12-05T10:04:55.716Z,21.20
2018-12-05T10:07:23.964Z,18.63
2018-12-05T10:09:54.249Z,20.40
2018-12-05T10:12:21.972Z,22.00
2018-12-05T10:14:53.589Z,14.40
2018-12-05T10:17:22.812Z,20.43
2018-12-05T10:19:50.377Z,16.40
2018-12-05T10:22:17.954Z,14.83
2018-12-05T10:24:48.798Z,16.50
2018-12-05T10:27:16.376Z,13.77
2018-12-05T10:29:44.784Z,16.73
2018-12-05T10:32:12.364Z,14.97
2018-12-05T10:34:40.756Z,15.83
2018-12-05T10:37:08.320Z,15.63
2018-12-05T10:39:35.876Z,14.17
2018-12-05T10:42:03.438Z,18.20
2018-12-05T10:44:31.001Z,15.53
2018-12-05T10:46:58.568Z,13.60
2018-12-05T10:49:26.153Z,11.53
2018-12-05T10:51:53.715Z,13.70
2018-12-05T10:54:21.273Z,15.23
2018-12-05T10:56:48.858Z,14.57
2018-12-05T10:59:16.408Z,14.43
2018-12-05T11:01:49.954Z,12.77
2018-12-05T11:04:20.573Z,14.17
2018-12-05T11:06:53.899Z,14.53
2018-12-05T11:09:27.252Z,14.20
2018-12-05T11:12:00.630Z,13.00
2018-12-05T11:14:34.928Z,15.40
2018-12-05T11:17:08.267Z,13.80
2018-12-05T11:19:41.467Z,12.40
2018-12-05T11:22:10.992Z,15.13
2018-12-05T11:24:38.624Z,13.27
2018-12-05T11:27:06.193Z,13.13
2018-12-05T11:29:33.827Z,15.20
2018-12-05T11:32:01.493Z,14.47
2018-12-05T11:34:29.085Z,13.43
2018-12-05T11:36:56.656Z,14.67
2018-12-05T11:39:24.208Z,13.63
2018-12-05T11:41:51.768Z,19.60
2018-12-05T11:44:19.333Z,19.07
2018-12-05T11:46:48.511Z,17.20
2018-12-05T11:49:16.269Z,16.70
2018-12-05T11:51:43.832Z,17.63
2018-12-05T11:54:11.399Z,23.43
2018-12-05T11:56:38.952Z,20.93
2018-12-05T11:59:06.499Z,19.07
2018-12-05T12:01:34.051Z,18.73
2018-12-05T12:04:01.610Z,20.87
2018-12-05T12:06:29.161Z,17.13
2018-12-05T12:08:56.719Z,19.33
2018-12-05T12:11:24.276Z,24.87
2018-12-05T12:13:51.837Z,25.33
2018-12-05T12:16:19.418Z,22.10
2018-12-05T12:18:47.056Z,20.67
2018-12-05T12:21:15.234Z,22.53
2018-12-05T12:23:44.001Z,22.60
2018-12-05T12:26:11.558Z,21.73
2018-12-05T12:28:39.175Z,26.13
2018-12-05T12:31:06.724Z,22.73
2018-12-05T12:33:34.281Z,23.70
2018-12-05T12:36:01.834Z,29.17
2018-12-05T12:38:29.388Z,23.77
2018-12-05T12:40:56.949Z,22.50
2018-12-05T12:43:24.512Z,28.77
2018-12-05T12:45:52.074Z,27.33
2018-12-05T12:48:19.652Z,21.73
2018-12-05T12:50:47.203Z,30.07
2018-12-05T12:53:14.753Z,24.13
2018-12-05T12:55:42.305Z,27.30
2018-12-05T12:58:09.872Z,27.47
2018-12-05T13:00:37.426Z,23.20
2018-12-05T13:03:04.996Z,25.47
2018-12-05T13:05:32.553Z,27.93
2018-12-05T13:08:00.123Z,27.40
2018-12-05T13:10:27.680Z,33.40
2018-12-05T13:12:55.346Z,29.03
2018-12-05T13:15:22.928Z,28.47
2018-12-05T13:17:50.484Z,30.10
2018-12-05T13:20:18.060Z,31.47
2018-12-05T13:22:45.616Z,26.10
2018-12-05T13:25:13.492Z,31.13
2018-12-05T13:27:41.047Z,33.40
2018-12-05T13:30:08.608Z,33.07
2018-12-05T13:32:36.181Z,34.83
2018-12-05T13:35:03.908Z,36.63
2018-12-05T13:37:31.485Z,37.00
2018-12-05T13:39:59.999Z,33.83
2018-12-05T13:42:27.720Z,36.63
2018-12-05T13:44:55.283Z,36.73
2018-12-05T13:47:22.837Z,36.07
2018-12-05T13:49:50.400Z,34.90
2018-12-05T13:52:19.319Z,43.00
2018-12-05T13:54:47.232Z,39.23
2018-12-05T13:57:14.792Z,39.90
2018-12-05T13:59:42.348Z,36.83
2018-12-05T14:02:09.902Z,41.43
2018-12-05T14:04:37.456Z,36.80
2018-12-05T14:07:05.016Z,42.10
2018-12-05T14:09:32.577Z,37.50
2018-12-05T14:12:00.467Z,38.00
2018-12-05T14:14:28.248Z,40.67
2018-12-05T14:16:55.869Z,40.07
2018-12-05T14:19:23.469Z,40.60
2018-12-05T14:21:51.264Z,33.03
2018-12-05T14:24:18.823Z,38.47
2018-12-05T14:26:49.350Z,33.77
2018-12-05T14:29:17.020Z,37.83
2018-12-05T14:31:44.578Z,37.40
2018-12-05T14:34:12.178Z,34.07
2018-12-05T14:36:39.735Z,37.50
2018-12-05T14:39:07.299Z,40.57
2018-12-05T14:41:34.858Z,38.00
2018-12-05T14:44:02.417Z,28.73
2018-12-05T14:46:29.973Z,33.00
2018-12-05T14:48:57.537Z,31.30
2018-12-05T14:51:25.090Z,39.27
2018-12-05T14:53:52.654Z,31.47
2018-12-05T14:56:20.224Z,32.57
2018-12-05T14:58:47.777Z,30.03
2018-12-05T15:01:15.327Z,35.83
2018-12-05T15:03:42.884Z,26.93
2018-12-05T15:06:10.438Z,32.13
2018-12-05T15:08:37.995Z,29.17
2018-12-05T15:11:05.574Z,30.80
2018-12-05T15:13:33.134Z,28.87
2018-12-05T15:16:00.857Z,31.90
2018-12-05T15:18:28.664Z,32.20
2018-12-05T15:20:56.226Z,29.10
2018-12-05T15:23:23.776Z,30.50
2018-12-05T15:25:51.344Z,31.17
2018-12-05T15:28:18.904Z,32.10
2018-12-05T15:30:46.479Z,27.97
2018-12-05T15:33:14.044Z,33.83
2018-12-05T15:35:41.601Z,32.83
2018-12-05T15:38:09.202Z,37.27
2018-12-05T15:40:37.001Z,33.50
2018-12-05T15:43:04.569Z,31.83
2018-12-05T15:45:32.843Z,29.13
2018-12-05T15:48:00.401Z,32.30
2018-12-05T15:50:27.968Z,29.10
2018-12-05T15:52:55.565Z,28.87
2018-12-05T15:55:23.136Z,28.50
2018-12-05T15:57:50.760Z,28.10
2018-12-05T16:00:18.342Z,28.13
2018-12-05T16:02:45.905Z,27.77
2018-12-05T16:05:14.041Z,30.07
2018-12-05T16:07:41.608Z,24.70
2018-12-05T16:10:09.383Z,28.80
2018-12-05T16:12:36.937Z,27.70
2018-12-05T16:15:04.579Z,23.67
2018-12-05T16:17:32.164Z,23.43
2018-12-05T16:19:59.761Z,26.03
2018-12-05T16:22:27.326Z,31.13
2018-12-05T16:24:55.353Z,24.57
2018-12-05T16:27:22.915Z,25.67
2018-12-05T16:29:50.542Z,21.00
2018-12-05T16:32:18.103Z,24.20
2018-12-05T16:34:45.664Z,23.27
2018-12-05T16:37:13.238Z,25.23
2018-12-05T16:39:40.804Z,22.13
2018-12-05T16:42:08.364Z,26.00
2018-12-05T16:44:35.918Z,26.83
2018-12-05T16:47:03.480Z,24.03
2018-12-05T16:49:31.037Z,23.83
2018-12-05T16:51:58.600Z,28.27
2018-12-05T16:54:26.425Z,25.17
2018-12-05T16:56:53.995Z,23.30
2018-12-05T16:59:21.559Z,22.33
2018-12-05T17:01:49.130Z,17.07
2018-12-05T17:04:17.360Z,19.90
2018-12-05T17:06:44.949Z,19.83
2018-12-05T17:09:12.937Z,24.80
2018-12-05T17:11:41.432Z,24.33
2018-12-05T17:14:09.738Z,22.17
2018-12-05T17:16:37.312Z,21.97
2018-12-05T17:19:05.671Z,23.47
2018-12-05T17:21:33.255Z,23.33
2018-12-05T17:24:00.818Z,24.73
2018-12-05T17:26:29.290Z,26.10
2018-12-05T17:28:56.869Z,24.30
2018-12-05T17:31:25.336Z,21.03
2018-12-05T17:33:52.896Z,25.30
2018-12-05T17:36:20.460Z,24.93
2018-12-05T17:38:48.034Z,18.10
2018-12-05T17:41:15.603Z,21.33
2018-12-05T17:43:43.599Z,22.73
2018-12-05T17:46:11.573Z,20.63
2018-12-05T17:48:39.811Z,19.17
2018-12-05T17:51:07.394Z,19.07
2018-12-05T17:53:35.949Z,17.77
2018-12-05T17:56:03.519Z,20.37
2018-12-05T17:58:31.087Z,18.97
2018-12-05T18:00:59.084Z,25.27
2018-12-05T18:03:26.645Z,23.77
2018-12-05T18:05:54.206Z,20.50
2018-12-05T18:08:21.760Z,20.33
2018-12-05T18:10:49.323Z,22.13
2018-12-05T18:13:17.060Z,21.23
2018-12-05T18:15:44.743Z,22.37
2018-12-05T18:18:12.301Z,20.07
2018-12-05T18:20:39.877Z,25.03
2018-12-05T18:23:07.464Z,20.63
2018-12-05T18:25:35.061Z,23.93
2018-12-05T18:28:02.617Z,21.27
2018-12-05T18:30:30.176Z,18.03
2018-12-05T18:32:57.767Z,20.63
2018-12-05T18:35:26.264Z,18.93
2018-12-05T18:37:53.870Z,24.65
2018-12-05T18:40:21.438Z,20.77
2018-12-05T18:48:02.509Z,26.13
2018-12-05T18:50:30.085Z,21.33
2018-12-05T18:52:57.636Z,17.50
2018-12-05T18:55:25.580Z,20.23
2018-12-05T18:57:53.148Z,17.57
2018-12-05T19:00:20.731Z,22.37
2018-12-05T19:02:48.298Z,17.83
2018-12-05T19:05:15.884Z,19.83
2018-12-05T19:07:43.439Z,21.10
2018-12-05T19:10:11.036Z,19.47
2018-12-05T19:12:38.597Z,22.20
2018-12-05T19:15:06.164Z,25.53
2018-12-05T19:17:33.716Z,25.03
2018-12-05T19:20:01.272Z,26.83
2018-12-05T19:22:29.571Z,24.00
2018-12-05T19:24:58.082Z,25.70
2018-12-05T19:27:25.645Z,26.27
2018-12-05T19:29:53.239Z,22.17
2018-12-05T19:32:20.801Z,27.43
2018-12-05T19:34:49.216Z,22.00
2018-12-05T19:37:17.623Z,20.73
2018-12-05T19:39:45.643Z,19.40
2018-12-05T19:42:13.203Z,23.87
2018-12-05T19:44:40.772Z,21.17
2018-12-05T19:47:08.337Z,24.77
2018-12-05T19:49:35.884Z,22.53
2018-12-05T19:52:03.515Z,18.20
2018-12-05T19:54:31.080Z,22.23
2018-12-05T19:56:58.640Z,23.67
2018-12-05T19:59:27.128Z,19.83
2018-12-05T20:01:54.689Z,20.63
2018-12-05T20:04:22.258Z,21.57
2018-12-05T20:06:49.812Z,17.00
2018-12-05T20:09:17.371Z,21.53
2018-12-05T20:11:44.935Z,19.87
2018-12-05T20:14:15.423Z,28.00
2018-12-05T20:16:42.992Z,22.73
2018-12-05T20:19:10.564Z,18.60
2018-12-05T20:21:38.792Z,24.93
2018-12-05T20:24:07.173Z,20.47
2018-12-05T20:26:35.613Z,26.03
2018-12-05T20:29:03.180Z,19.63
2018-12-05T20:31:30.740Z,16.20
2018-12-05T20:33:58.303Z,22.90
2018-12-05T20:36:25.856Z,20.10
2018-12-05T20:38:53.432Z,21.13
2018-12-05T20:41:20.993Z,24.33
2018-12-05T20:43:48.545Z,16.23
2018-12-05T20:46:16.828Z,19.27
2018-12-05T20:48:44.429Z,19.60
2018-12-05T20:51:11.992Z,17.60
2018-12-05T20:53:39.544Z,20.37
2018-12-05T20:56:07.104Z,20.10
2018-12-05T20:58:34.664Z,18.13
2018-12-05T21:01:02.220Z,18.57
2018-12-05T21:03:29.774Z,22.30
2018-12-05T21:05:58.348Z,17.53
2018-12-05T21:08:25.908Z,14.43
2018-12-05T21:10:53.509Z,20.00
2018-12-05T21:13:21.058Z,22.43
2018-12-05T21:15:48.618Z,20.87
2018-12-05T21:18:17.187Z,20.10
2018-12-05T21:20:45.557Z,18.40
2018-12-05T21:23:19.977Z,20.60
2018-12-05T21:25:47.537Z,22.40
2018-12-05T21:28:21.879Z,22.90
2018-12-05T21:30:50.555Z,14.67
2018-12-05T21:33:18.192Z,19.93
2018-12-05T21:35:48.245Z,19.13
2018-12-05T21:38:18.444Z,16.37
2018-12-05T21:40:48.179Z,18.60
2018-12-05T21:43:15.738Z,18.40
2018-12-05T21:45:43.371Z,24.00
2018-12-05T21:48:11.401Z,19.73
2018-12-05T21:50:40.009Z,17.60
2018-12-05T21:55:42.439Z,21.00
2018-12-05T21:58:09.998Z,14.87
2018-12-05T22:00:38.709Z,21.33
2018-12-05T22:03:07.685Z,25.83
2018-12-05T22:05:35.331Z,13.87
2018-12-05T22:08:03.682Z,16.87
2018-12-05T22:10:31.887Z,21.10
2018-12-05T22:12:59.450Z,19.37
2018-12-05T22:15:27.588Z,19.73
2018-12-05T22:17:56.652Z,19.37
2018-12-05T22:20:24.208Z,21.63
2018-12-05T22:22:52.012Z,22.13
2018-12-05T22:25:20.112Z,20.03
2018-12-05T22:27:47.666Z,15.37
2018-12-05T22:30:15.230Z,24.87
2018-12-05T22:32:44.501Z,24.27
2018-12-05T22:35:12.099Z,25.27
2018-12-05T22:37:40.731Z,24.77
2018-12-05T22:45:17.055Z,22.43
2018-12-05T22:47:44.618Z,20.63
2018-12-05T22:50:14.313Z,26.17
2018-12-05T22:52:42.794Z,20.30
2018-12-05T22:55:10.399Z,24.67
2018-12-05T22:57:37.961Z,24.93
2018-12-05T23:00:07.419Z,23.30
2018-12-05T23:02:34.974Z,24.87
2018-12-05T23:05:02.594Z,21.97
2018-12-05T23:07:31.310Z,28.37
2018-12-05T23:10:03.762Z,22.10
2018-12-05T23:12:31.328Z,30.87
2018-12-05T23:14:58.889Z,24.00
2018-12-05T23:17:26.443Z,23.50
2018-12-05T23:19:54.005Z,24.47
2018-12-05T23:22:25.085Z,32.43
2018-12-05T23:24:52.715Z,25.23
2018-12-05T23:27:22.864Z,36.60
2018-12-05T23:32:27.804Z,29.33
2018-12-05T23:35:03.048Z,28.93
2018-12-05T23:37:31.140Z,27.93
2018-12-05T23:39:58.736Z,24.13
2018-12-05T23:42:29.076Z,21.93
2018-12-05T23:45:00.746Z,18.10
2018-12-05T23:47:29.762Z,22.17
2018-12-05T23:50:02.028Z,22.37
2018-12-05T23:52:29.621Z,23.70
2018-12-05T23:54:57.628Z,23.93
2018-12-05T23:57:25.985Z,19.67
